Time;durP1;ratioP1;P1;durP2;ratioP2;P2;SDS_P1;SDS_P2;PMS_P1;PMS_P2;Temp;Humidity;BMP_temperature;BMP_pressure;BME280_temperature;BME280_humidity;BME280_pressure;Samples;Min_cycle;Max_cycle;Signal;HPM_P1;HPM_P2
2021/09/15 00:00:41;;;;;;;3.60;1.80;;;14.20;71.20;;;;;;5044524;28;20511;-70
2021/09/15 00:03:07;;;;;;;5.65;2.67;;;14.20;71.30;;;;;;5046855;28;20039;-69
2021/09/15 00:05:34;;;;;;;6.15;2.40;;;14.20;71.60;;;;;;5043326;28;20017;-70
2021/09/15 00:08:40;;;;;;;3.28;2.25;;;14.10;71.70;;;;;;5044379;28;20094;-69
2021/09/15 00:11:06;;;;;;;5.47;2.08;;;14.10;72.00;;;;;;5045687;28;20027;-70
2021/09/15 00:13:33;;;;;;;4.20;2.03;;;14.10;72.40;;;;;;5049384;28;20033;-70
2021/09/15 00:15:59;;;;;;;4.68;1.73;;;14.00;72.50;;;;;;5045830;28;20021;-70
2021/09/15 00:18:26;;;;;;;3.50;1.67;;;14.00;72.70;;;;;;5046931;28;20024;-70
2021/09/15 00:20:52;;;;;;;3.65;1.90;;;14.00;72.60;;;;;;5043550;28;20052;-69
2021/09/15 00:23:19;;;;;;;7.18;2.38;;;14.00;72.70;;;;;;5042489;28;20471;-70
2021/09/15 00:25:45;;;;;;;3.90;1.83;;;14.00;72.80;;;;;;5044301;28;20095;-70
2021/09/15 00:28:12;;;;;;;4.97;1.90;;;14.00;72.80;;;;;;5040941;28;20021;-70
2021/09/15 00:30:38;;;;;;;6.53;1.85;;;14.00;72.90;;;;;;5045501;28;20503;-70
2021/09/15 00:33:04;;;;;;;3.40;1.58;;;14.00;73.10;;;;;;5041525;28;20022;-69
2021/09/15 00:35:31;;;;;;;5.13;2.40;;;14.00;73.10;;;;;;5048389;28;20021;-70
2021/09/15 00:37:58;;;;;;;7.35;3.25;;;14.00;73.00;;;;;;5044927;28;20029;-70
2021/09/15 00:40:24;;;;;;;5.50;2.25;;;14.00;73.10;;;;;;5043792;28;20140;-70
2021/09/15 00:42:51;;;;;;;8.27;2.85;;;14.00;73.20;;;;;;5042281;28;20032;-70
2021/09/15 00:45:18;;;;;;;4.90;2.00;;;14.00;73.20;;;;;;5046472;28;20104;-70
2021/09/15 00:47:44;;;;;;;4.20;2.10;;;14.00;73.20;;;;;;5046197;28;20037;-69
2021/09/15 00:50:11;;;;;;;4.07;2.03;;;14.00;73.30;;;;;;5046562;28;20009;-70
2021/09/15 00:52:37;;;;;;;2.45;1.98;;;14.00;73.30;;;;;;5044835;28;20029;-69
2021/09/15 00:55:04;;;;;;;3.97;2.10;;;14.00;73.40;;;;;;5041965;28;20017;-70
2021/09/15 00:57:30;;;;;;;3.63;2.10;;;13.90;73.50;;;;;;5046332;28;20024;-69
2021/09/15 00:59:57;;;;;;;4.00;2.03;;;13.90;73.70;;;;;;5049410;28;20033;-70
2021/09/15 01:02:27;;;;;;;3.95;2.47;;;13.90;73.90;;;;;;5041811;28;20045;-70
2021/09/15 01:04:54;;;;;;;3.90;2.05;;;13.90;74.00;;;;;;5043961;28;20064;-70
2021/09/15 01:07:20;;;;;;;2.72;2.20;;;13.80;73.90;;;;;;5042448;28;20514;-70
2021/09/15 01:09:50;;;;;;;3.40;2.17;;;13.80;74.10;;;;;;5041374;28;20411;-69
2021/09/15 01:12:17;;;;;;;6.63;2.10;;;13.80;74.20;;;;;;5050971;28;20071;-70
2021/09/15 01:14:44;;;;;;;3.05;1.88;;;13.90;74.50;;;;;;5049289;28;20015;-70
2021/09/15 01:17:11;;;;;;;7.22;2.40;;;13.90;74.10;;;;;;5044649;28;20479;-70
2021/09/15 01:19:37;;;;;;;4.57;2.70;;;13.90;73.90;;;;;;5047782;28;20028;-70
2021/09/15 01:22:04;;;;;;;2.58;1.50;;;13.90;73.80;;;;;;5043932;28;20017;-70
2021/09/15 01:24:31;;;;;;;2.17;1.77;;;13.80;73.70;;;;;;5048085;28;20020;-70
2021/09/15 01:26:59;;;;;;;2.17;1.63;;;13.80;73.40;;;;;;5050795;28;20051;-70
2021/09/15 01:29:29;;;;;;;1.70;1.35;;;13.80;73.40;;;;;;5043154;28;20017;-70
2021/09/15 01:31:58;;;;;;;2.40;1.40;;;13.80;73.30;;;;;;5050185;28;20472;-70
2021/09/15 01:34:26;;;;;;;1.95;1.85;;;13.80;73.30;;;;;;5047443;28;20519;-70
2021/09/15 01:36:52;;;;;;;4.40;2.15;;;13.80;73.30;;;;;;5044639;28;20017;-70
2021/09/15 01:39:19;;;;;;;3.97;1.70;;;13.80;73.10;;;;;;5047511;28;20024;-70
2021/09/15 01:41:46;;;;;;;4.32;1.50;;;13.70;72.80;;;;;;5043572;28;20048;-70
2021/09/15 01:44:12;;;;;;;1.73;1.42;;;13.70;72.70;;;;;;5049492;28;20119;-70
2021/09/15 01:46:39;;;;;;;5.63;1.83;;;13.70;72.70;;;;;;5049140;28;20094;-70
2021/09/15 01:49:05;;;;;;;3.65;1.27;;;13.60;72.70;;;;;;5050076;28;20055;-70
2021/09/15 01:51:31;;;;;;;4.13;1.63;;;13.60;72.80;;;;;;5047016;28;20368;-70
2021/09/15 01:53:58;;;;;;;3.38;1.40;;;13.60;72.90;;;;;;5050133;28;20075;-71
2021/09/15 01:56:25;;;;;;;4.00;1.17;;;13.60;72.70;;;;;;5050010;28;20031;-70
2021/09/15 01:58:52;;;;;;;4.68;1.13;;;13.60;72.90;;;;;;5048937;28;20106;-70
2021/09/15 02:01:18;;;;;;;3.13;1.30;;;13.50;72.80;;;;;;5045891;28;20025;-70
2021/09/15 02:03:45;;;;;;;2.63;1.25;;;13.50;73.10;;;;;;5040575;28;20357;-70
2021/09/15 02:06:11;;;;;;;2.05;1.27;;;13.50;72.90;;;;;;5051181;28;20119;-68
2021/09/15 02:08:38;;;;;;;4.80;1.70;;;13.50;72.80;;;;;;5047023;28;20033;-69
2021/09/15 02:11:04;;;;;;;3.97;1.00;;;13.50;72.80;;;;;;5047386;28;20476;-70
2021/09/15 02:13:30;;;;;;;3.63;2.35;;;13.40;72.70;;;;;;5047580;28;20079;-70
2021/09/15 02:15:57;;;;;;;3.22;1.45;;;13.50;72.80;;;;;;5046648;28;20063;-69
2021/09/15 02:18:24;;;;;;;2.10;1.60;;;13.40;72.70;;;;;;5051662;28;20473;-70
2021/09/15 02:20:50;;;;;;;5.60;2.03;;;13.40;72.80;;;;;;5046242;28;20384;-69
2021/09/15 02:23:17;;;;;;;3.03;1.65;;;13.40;72.80;;;;;;5049169;28;20021;-70
2021/09/15 02:25:43;;;;;;;2.28;1.58;;;13.40;72.90;;;;;;5041422;28;20029;-70
2021/09/15 02:28:10;;;;;;;6.30;1.88;;;13.40;72.90;;;;;;5042350;28;20116;-70
2021/09/15 02:30:36;;;;;;;5.10;2.38;;;13.40;72.90;;;;;;5050118;28;20492;-70
2021/09/15 02:33:02;;;;;;;2.65;1.73;;;13.40;72.80;;;;;;5046330;28;20024;-70
2021/09/15 02:35:29;;;;;;;3.85;1.85;;;13.40;72.80;;;;;;5049840;28;20100;-70
2021/09/15 02:37:55;;;;;;;4.55;2.13;;;13.40;72.90;;;;;;5045288;28;20017;-70
2021/09/15 02:40:22;;;;;;;3.67;2.33;;;13.40;72.90;;;;;;5043238;28;20027;-69
2021/09/15 02:42:48;;;;;;;3.05;2.20;;;13.30;72.80;;;;;;5048661;28;20025;-70
2021/09/15 02:45:15;;;;;;;3.40;2.47;;;13.30;72.90;;;;;;5047600;28;20053;-70
2021/09/15 02:47:41;;;;;;;5.32;2.42;;;13.30;72.90;;;;;;5049658;28;20397;-70
2021/09/15 02:50:08;;;;;;;4.10;2.13;;;13.30;73.00;;;;;;5040232;28;20082;-70
2021/09/15 02:52:35;;;;;;;3.88;2.08;;;13.20;73.10;;;;;;5046692;28;20032;-70
2021/09/15 02:55:01;;;;;;;3.35;1.75;;;13.20;73.20;;;;;;5046442;28;20027;-69
2021/09/15 02:57:28;;;;;;;59.50;41.33;;;13.20;73.20;;;;;;5048318;28;20328;-69
2021/09/15 02:59:54;;;;;;;102.15;68.80;;;13.20;73.70;;;;;;5046389;28;20484;-70
2021/09/15 03:02:21;;;;;;;24.77;14.73;;;13.20;73.60;;;;;;5048439;28;20028;-70
2021/09/15 03:04:47;;;;;;;5.28;4.22;;;13.20;73.40;;;;;;5045592;28;20021;-70
2021/09/15 03:07:14;;;;;;;5.05;1.85;;;13.20;73.10;;;;;;5041996;28;20561;-70
2021/09/15 03:09:40;;;;;;;2.28;1.83;;;13.20;73.00;;;;;;5042342;28;20017;-68
2021/09/15 03:12:07;;;;;;;1.70;1.30;;;13.20;72.90;;;;;;5046008;28;20067;-70
2021/09/15 03:14:33;;;;;;;1.75;1.27;;;13.10;72.90;;;;;;5042264;28;20036;-70
2021/09/15 03:17:00;;;;;;;4.15;1.63;;;13.10;73.10;;;;;;5039767;28;20446;-70
2021/09/15 03:19:26;;;;;;;2.55;1.92;;;13.00;73.30;;;;;;5048879;28;20411;-70
2021/09/15 03:21:53;;;;;;;3.03;2.33;;;12.90;73.50;;;;;;5047655;28;20349;-72
2021/09/15 03:24:19;;;;;;;2.75;1.63;;;12.90;73.80;;;;;;5042235;28;20037;-70
2021/09/15 03:26:46;;;;;;;3.08;1.50;;;12.90;73.90;;;;;;5042778;28;20040;-69
2021/09/15 03:29:12;;;;;;;2.67;1.70;;;12.80;73.60;;;;;;5048758;28;20100;-71
2021/09/15 03:31:39;;;;;;;3.30;1.60;;;12.80;73.60;;;;;;5044960;28;20029;-70
2021/09/15 03:34:05;;;;;;;3.63;1.75;;;12.80;73.90;;;;;;5043647;28;20009;-70
2021/09/15 03:36:32;;;;;;;4.22;1.15;;;12.80;73.90;;;;;;5046295;28;20024;-69
2021/09/15 03:38:59;;;;;;;2.20;1.25;;;12.70;73.70;;;;;;5043190;28;20022;-70
2021/09/15 03:41:25;;;;;;;3.20;1.48;;;12.70;73.60;;;;;;5041061;28;20020;-70
2021/09/15 03:43:52;;;;;;;32.53;22.77;;;12.70;73.70;;;;;;5046939;28;20388;-70
2021/09/15 03:46:18;;;;;;;74.30;51.45;;;12.70;74.00;;;;;;5043207;28;20047;-69
2021/09/15 03:48:45;;;;;;;25.80;17.13;;;12.70;74.20;;;;;;5048815;28;20037;-71
2021/09/15 03:51:11;;;;;;;9.77;5.13;;;12.70;73.80;;;;;;5041657;28;20055;-71
2021/09/15 03:53:38;;;;;;;4.72;3.20;;;12.70;73.90;;;;;;5041398;28;20033;-69
2021/09/15 03:56:05;;;;;;;2.88;2.00;;;12.70;73.60;;;;;;5044589;28;20350;-69
2021/09/15 03:58:31;;;;;;;2.65;1.30;;;12.70;73.60;;;;;;5043758;28;20030;-68
2021/09/15 04:00:58;;;;;;;4.55;1.92;;;12.70;73.50;;;;;;5044815;28;20028;-69
2021/09/15 04:03:24;;;;;;;4.43;1.83;;;12.70;73.60;;;;;;5045860;28;20108;-69
2021/09/15 04:05:50;;;;;;;3.33;1.25;;;12.60;73.70;;;;;;5042064;28;20029;-67
2021/09/15 04:08:17;;;;;;;3.60;1.50;;;12.70;73.40;;;;;;5048406;28;20545;-71
2021/09/15 04:10:43;;;;;;;2.42;1.30;;;12.60;73.30;;;;;;5046338;28;20131;-70
2021/09/15 04:13:10;;;;;;;2.70;1.27;;;12.60;73.30;;;;;;5045217;28;20481;-69
2021/09/15 04:15:36;;;;;;;3.22;1.83;;;12.60;73.30;;;;;;5046469;28;20032;-67
2021/09/15 04:18:03;;;;;;;4.55;3.75;;;12.60;73.20;;;;;;5045097;28;20032;-69
2021/09/15 04:20:30;;;;;;;32.60;21.58;;;12.60;73.30;;;;;;5047514;28;20020;-70
2021/09/15 04:22:57;;;;;;;4.63;3.08;;;12.60;73.50;;;;;;5047156;28;20104;-71
2021/09/15 04:34:37;;;;;;;2.42;1.25;;;12.40;74.00;;;;;;4985017;28;20490;-70
2021/09/15 04:37:43;;;;;;;3.50;1.52;;;12.30;74.40;;;;;;4985918;28;20030;-69
2021/09/15 04:40:49;;;;;;;1.58;1.23;;;12.30;74.20;;;;;;5047733;28;20025;-69
2021/09/15 04:43:55;;;;;;;3.38;1.50;;;12.30;74.20;;;;;;5047679;28;20071;-70
2021/09/15 04:47:01;;;;;;;3.07;1.43;;;12.30;74.40;;;;;;5049872;28;20517;-67
2021/09/15 04:50:07;;;;;;;3.00;1.58;;;12.30;74.30;;;;;;5045756;28;20288;-69
2021/09/15 04:53:13;;;;;;;11.20;2.72;;;12.30;74.20;;;;;;5045971;28;20017;-71
2021/09/15 04:56:19;;;;;;;3.00;1.13;;;12.30;74.00;;;;;;5046906;28;20028;-69
2021/09/15 04:59:25;;;;;;;4.80;1.10;;;12.30;73.90;;;;;;5048123;28;20048;-70
2021/09/15 05:02:31;;;;;;;6.27;1.80;;;12.20;73.80;;;;;;5039640;28;20020;-69
2021/09/15 05:05:37;;;;;;;2.53;1.20;;;12.20;73.90;;;;;;5039929;28;20267;-70
2021/09/15 05:08:44;;;;;;;8.77;2.38;;;12.20;73.70;;;;;;5041750;28;20029;-69
2021/09/15 05:11:50;;;;;;;2.97;0.90;;;12.20;73.80;;;;;;5042234;28;20026;-70
2021/09/15 05:14:56;;;;;;;1.40;0.85;;;12.20;73.70;;;;;;5044278;28;20173;-68
2021/09/15 05:17:42;;;;;;;;;;;12.20;73.80;;;;;;5051555;28;20029;-68
2021/09/15 05:20:48;;;;;;;3.58;0.77;;;12.20;73.70;;;;;;5042376;28;19966;-70
2021/09/15 05:23:54;;;;;;;1.58;0.65;;;12.20;73.60;;;;;;5039024;28;20025;-67
2021/09/15 05:27:01;;;;;;;1.70;0.60;;;12.20;73.80;;;;;;5040595;28;20029;-66
2021/09/15 05:30:07;;;;;;;3.47;0.80;;;12.20;73.90;;;;;;5037874;28;20083;-67
2021/09/15 05:33:13;;;;;;;2.20;0.75;;;12.30;74.30;;;;;;5043135;28;20035;-69
2021/09/15 05:36:19;;;;;;;1.13;0.60;;;12.30;74.10;;;;;;5039525;28;20021;-67
2021/09/15 05:39:25;;;;;;;0.85;0.68;;;12.30;74.20;;;;;;5040599;28;20021;-67
2021/09/15 05:41:52;;;;;;;3.80;1.25;;;12.40;74.20;;;;;;5041414;28;20020;-69
2021/09/15 05:44:18;;;;;;;4.18;2.05;;;12.40;74.30;;;;;;5043157;28;20035;-68
2021/09/15 05:46:44;;;;;;;8.95;1.85;;;12.40;74.40;;;;;;5046412;28;20013;-67
2021/09/15 05:49:11;;;;;;;4.72;0.95;;;12.50;74.70;;;;;;5048435;28;20028;-68
2021/09/15 05:51:37;;;;;;;2.25;0.95;;;12.50;74.50;;;;;;5048642;28;20021;-68
2021/09/15 05:54:04;;;;;;;2.35;0.93;;;12.60;74.30;;;;;;5046380;28;20515;-68
2021/09/15 05:56:31;;;;;;;3.83;1.42;;;12.60;74.20;;;;;;5046097;28;20027;-68
2021/09/15 05:58:57;;;;;;;2.22;1.50;;;12.70;74.40;;;;;;5048044;28;20029;-68
2021/09/15 06:01:24;;;;;;;5.80;1.80;;;12.70;74.50;;;;;;5047755;28;20014;-68
2021/09/15 06:03:50;;;;;;;3.63;1.77;;;12.80;74.60;;;;;;5041517;28;20131;-67
2021/09/15 06:06:17;;;;;;;2.78;1.13;;;12.80;74.50;;;;;;5044153;28;20024;-68
2021/09/15 06:08:43;;;;;;;3.88;1.40;;;12.90;74.30;;;;;;5043326;28;20032;-68
2021/09/15 06:11:10;;;;;;;6.57;2.00;;;12.90;73.90;;;;;;5047973;28;20424;-69
2021/09/15 06:13:36;;;;;;;3.55;1.55;;;13.00;73.80;;;;;;5047471;28;20535;-69
2021/09/15 06:16:06;;;;;;;4.55;2.25;;;13.10;73.80;;;;;;5044774;28;20009;-68
2021/09/15 06:18:33;;;;;;;5.00;3.58;;;13.10;73.70;;;;;;5047383;28;20103;-68
2021/09/15 06:21:01;;;;;;;5.82;3.33;;;13.20;73.30;;;;;;5043272;28;20040;-68
2021/09/15 06:23:30;;;;;;;6.55;3.33;;;13.20;73.10;;;;;;5046490;28;20095;-68
2021/09/15 06:25:58;;;;;;;7.43;2.97;;;13.30;72.90;;;;;;5045994;28;20025;-68
2021/09/15 06:28:26;;;;;;;6.57;3.00;;;13.40;72.80;;;;;;5046551;28;20037;-68
2021/09/15 06:30:52;;;;;;;9.40;3.40;;;13.40;72.50;;;;;;5048903;28;20021;-68
2021/09/15 06:33:19;;;;;;;10.38;3.35;;;13.50;72.00;;;;;;5047885;28;20037;-68
2021/09/15 06:35:46;;;;;;;4.95;3.00;;;13.60;72.10;;;;;;5043130;28;20460;-69
2021/09/15 06:38:13;;;;;;;5.75;2.95;;;13.60;72.00;;;;;;5048262;28;20024;-68
2021/09/15 06:40:41;;;;;;;8.60;2.60;;;13.70;71.90;;;;;;5044776;28;20380;-68
2021/09/15 06:43:07;;;;;;;1.88;1.25;;;13.80;71.60;;;;;;5047258;28;20083;-68
2021/09/15 06:45:34;;;;;;;2.30;1.50;;;13.80;71.10;;;;;;5048091;28;20036;-68
2021/09/15 06:48:01;;;;;;;3.53;1.65;;;13.90;71.60;;;;;;5045372;28;20047;-68
2021/09/15 06:50:28;;;;;;;3.65;1.60;;;13.90;70.90;;;;;;5050837;28;20616;-68
2021/09/15 06:52:54;;;;;;;9.52;1.45;;;14.10;71.00;;;;;;5045221;28;20025;-68
2021/09/15 06:55:23;;;;;;;4.28;1.98;;;14.10;70.70;;;;;;5050626;28;20066;-68
2021/09/15 06:57:50;;;;;;;8.02;2.05;;;14.20;70.70;;;;;;5044543;28;20056;-68
2021/09/15 07:00:20;;;;;;;5.43;1.30;;;14.20;70.00;;;;;;5047615;28;20526;-68
2021/09/15 07:02:47;;;;;;;1.60;1.13;;;14.30;69.90;;;;;;5042975;28;20108;-68
2021/09/15 07:05:14;;;;;;;4.95;1.58;;;14.30;69.20;;;;;;5046707;28;20511;-68
2021/09/15 07:07:40;;;;;;;18.25;1.90;;;14.40;69.20;;;;;;5046960;28;20040;-68
2021/09/15 07:10:08;;;;;;;8.07;1.25;;;14.50;69.50;;;;;;5044853;28;20014;-69
2021/09/15 07:12:37;;;;;;;2.78;1.20;;;14.50;68.70;;;;;;5037224;28;20032;-69
2021/09/15 07:15:06;;;;;;;1.42;0.93;;;14.50;68.30;;;;;;5040792;28;20025;-69
2021/09/15 07:17:32;;;;;;;1.30;0.80;;;14.60;67.70;;;;;;5042496;28;20021;-69
2021/09/15 07:19:59;;;;;;;3.63;0.98;;;14.70;67.30;;;;;;5046842;28;20483;-68
2021/09/15 07:22:25;;;;;;;1.52;1.23;;;14.70;67.00;;;;;;5045186;28;20096;-69
2021/09/15 07:24:52;;;;;;;1.60;1.02;;;14.80;66.80;;;;;;5050291;28;20412;-69
2021/09/15 07:27:19;;;;;;;3.10;0.95;;;14.80;66.50;;;;;;5044530;28;20071;-69
2021/09/15 07:29:46;;;;;;;1.30;1.05;;;14.90;66.40;;;;;;5042181;28;20013;-69
2021/09/15 07:32:12;;;;;;;1.35;0.75;;;15.00;66.00;;;;;;5046894;28;20013;-69
2021/09/15 07:34:44;;;;;;;2.55;1.67;;;15.00;65.60;;;;;;5042565;28;20476;-68
2021/09/15 07:37:14;;;;;;;6.30;4.53;;;15.10;65.70;;;;;;5043543;28;20021;-69
2021/09/15 07:39:41;;;;;;;7.10;5.13;;;15.20;65.30;;;;;;5040113;28;20105;-69
2021/09/15 07:42:08;;;;;;;7.55;3.83;;;15.30;64.60;;;;;;5042740;28;20460;-69
2021/09/15 07:44:35;;;;;;;4.40;2.85;;;15.30;64.20;;;;;;5046428;28;20017;-69
2021/09/15 07:47:02;;;;;;;6.90;2.22;;;15.40;64.00;;;;;;5047597;28;20476;-69
2021/09/15 07:49:29;;;;;;;4.10;2.25;;;15.40;64.20;;;;;;5045425;28;20436;-69
2021/09/15 07:51:55;;;;;;;4.82;2.22;;;15.50;64.00;;;;;;5046188;28;20013;-69
2021/09/15 07:54:22;;;;;;;2.42;1.10;;;15.60;64.00;;;;;;5042627;28;20033;-69
2021/09/15 07:56:48;;;;;;;1.00;0.70;;;15.70;64.10;;;;;;5044428;28;20415;-71
2021/09/15 07:59:15;;;;;;;2.17;0.43;;;15.80;63.20;;;;;;5045636;28;20087;-69
2021/09/15 08:01:41;;;;;;;0.80;0.52;;;15.80;62.90;;;;;;5045948;28;20025;-69
2021/09/15 08:04:08;;;;;;;1.23;0.30;;;16.00;62.70;;;;;;5047381;28;20013;-69
2021/09/15 08:06:34;;;;;;;0.45;0.20;;;16.00;62.10;;;;;;5038242;28;20063;-69
2021/09/15 08:09:01;;;;;;;1.77;0.52;;;16.10;61.50;;;;;;5038509;28;20476;-69
2021/09/15 08:11:27;;;;;;;1.95;0.30;;;16.20;61.20;;;;;;5047373;28;20365;-69
2021/09/15 08:13:54;;;;;;;0.98;0.50;;;16.20;61.00;;;;;;5044405;28;20478;-69
2021/09/15 08:16:20;;;;;;;1.48;0.40;;;16.20;61.00;;;;;;5047973;28;20031;-69
2021/09/15 08:18:47;;;;;;;0.52;0.22;;;16.30;60.40;;;;;;5052690;28;20060;-69
2021/09/15 08:21:13;;;;;;;1.00;0.50;;;16.30;60.70;;;;;;5047410;28;20016;-69
2021/09/15 08:23:40;;;;;;;1.70;0.30;;;16.40;60.90;;;;;;5049468;28;20017;-69
2021/09/15 08:26:06;;;;;;;1.23;0.40;;;16.40;60.20;;;;;;5050171;28;20026;-69
2021/09/15 08:28:36;;;;;;;0.73;0.30;;;16.50;60.00;;;;;;5045159;28;20033;-69
2021/09/15 08:31:04;;;;;;;0.25;0.25;;;16.50;59.70;;;;;;5041902;28;20049;-69
2021/09/15 08:33:30;;;;;;;0.30;0.20;;;16.60;59.90;;;;;;5049177;28;20024;-69
2021/09/15 08:35:57;;;;;;;1.42;0.47;;;16.60;58.60;;;;;;5045709;28;20092;-69
2021/09/15 08:38:23;;;;;;;1.65;0.60;;;16.60;57.90;;;;;;5049638;28;20013;-69
2021/09/15 08:40:53;;;;;;;0.85;0.30;;;16.60;58.10;;;;;;5049976;28;20040;-69
2021/09/15 08:43:20;;;;;;;1.30;0.25;;;16.60;58.20;;;;;;5050202;28;20040;-69
2021/09/15 08:45:47;;;;;;;0.70;0.65;;;16.60;58.30;;;;;;5049884;28;20025;-69
2021/09/15 08:48:21;;;;;;;3.03;0.40;;;16.70;58.30;;;;;;5046837;28;20118;-69
2021/09/15 08:50:52;;;;;;;1.42;0.25;;;16.70;58.20;;;;;;5048281;28;20048;-69
2021/09/15 08:53:19;;;;;;;3.13;0.40;;;16.80;58.20;;;;;;5044467;28;20021;-69
2021/09/15 08:55:47;;;;;;;0.20;0.20;;;16.80;57.70;;;;;;5051817;28;20025;-69
2021/09/15 08:58:14;;;;;;;0.15;0.10;;;16.90;56.70;;;;;;5046418;28;20464;-69
2021/09/15 09:00:42;;;;;;;44.42;2.83;;;17.00;56.70;;;;;;5043333;28;20049;-69
2021/09/15 09:03:09;;;;;;;1.85;0.38;;;17.00;57.50;;;;;;5042843;28;20620;-69
2021/09/15 09:05:36;;;;;;;0.50;0.40;;;17.00;58.10;;;;;;5050202;28;20045;-69
2021/09/15 09:08:16;;;;;;;1.85;0.40;;;17.00;58.50;;;;;;5049680;28;20037;-69
2021/09/15 09:10:53;;;;;;;1.50;0.70;;;17.10;58.60;;;;;;5046812;28;20361;-69
2021/09/15 09:13:20;;;;;;;3.08;0.77;;;17.10;58.60;;;;;;5043552;28;20032;-69
2021/09/15 09:15:47;;;;;;;1.05;0.70;;;17.10;58.70;;;;;;5048504;28;20100;-69
2021/09/15 09:18:13;;;;;;;2.17;0.60;;;17.10;59.10;;;;;;5050212;28;20053;-69
2021/09/15 09:20:40;;;;;;;0.90;0.60;;;17.10;59.50;;;;;;5051883;28;20025;-69
2021/09/15 09:23:15;;;;;;;1.58;0.40;;;17.10;59.50;;;;;;5044352;28;20024;-69
2021/09/15 09:25:54;;;;;;;2.35;0.43;;;17.20;59.30;;;;;;5045383;28;20032;-69
2021/09/15 09:28:30;;;;;;;1.40;0.40;;;17.20;59.20;;;;;;5046783;28;20041;-69
2021/09/15 09:31:05;;;;;;;0.73;0.40;;;17.30;58.40;;;;;;5043319;28;20028;-69
2021/09/15 09:33:33;;;;;;;0.82;0.50;;;17.30;57.60;;;;;;5042326;28;20021;-69
2021/09/15 09:36:04;;;;;;;5.65;0.68;;;17.40;57.00;;;;;;5042143;28;20151;-69
2021/09/15 09:38:34;;;;;;;3.67;0.50;;;17.50;56.60;;;;;;5049591;28;20040;-69
2021/09/15 09:41:13;;;;;;;0.35;0.20;;;17.50;55.80;;;;;;5042373;28;20021;-69
2021/09/15 09:43:47;;;;;;;0.65;0.25;;;17.60;55.20;;;;;;5049251;28;20017;-69
2021/09/15 09:46:21;;;;;;;1.55;0.60;;;17.70;55.50;;;;;;5048880;28;20028;-69
2021/09/15 09:48:56;;;;;;;1.73;0.73;;;17.80;54.50;;;;;;5048233;28;20037;-69
2021/09/15 09:51:38;;;;;;;1.33;0.60;;;18.00;53.30;;;;;;5047960;28;20099;-69
2021/09/15 09:54:29;;;;;;;0.85;0.40;;;18.10;52.90;;;;;;5049408;28;20055;-69
2021/09/15 09:57:00;;;;;;;2.97;0.40;;;18.30;52.00;;;;;;5048413;28;20021;-69
2021/09/15 09:59:27;;;;;;;1.65;0.30;;;18.40;51.60;;;;;;5047365;28;20105;-69
2021/09/15 10:01:59;;;;;;;1.20;0.40;;;18.40;51.10;;;;;;5043492;28;20018;-69
2021/09/15 10:04:30;;;;;;;0.20;0.20;;;18.40;50.70;;;;;;5042884;28;20028;-69
2021/09/15 10:06:57;;;;;;;1.40;0.60;;;18.40;50.40;;;;;;5040848;28;20013;-69
2021/09/15 10:09:25;;;;;;;0.93;0.45;;;18.40;50.30;;;;;;5044841;28;20013;-70
2021/09/15 10:11:52;;;;;;;0.40;0.40;;;18.60;50.50;;;;;;5047329;28;20021;-69
2021/09/15 10:14:19;;;;;;;0.88;0.30;;;18.70;50.60;;;;;;5046216;28;20017;-69
2021/09/15 10:16:58;;;;;;;0.55;0.32;;;18.90;49.90;;;;;;5047464;28;20028;-69
2021/09/15 10:19:34;;;;;;;0.70;0.40;;;19.00;49.50;;;;;;5048563;28;20051;-69
2021/09/15 10:22:03;;;;;;;0.98;0.30;;;19.10;50.10;;;;;;5046965;28;20021;-69
2021/09/15 10:24:47;;;;;;;1.30;0.40;;;19.20;51.60;;;;;;5043925;28;20017;-69
2021/09/15 10:27:18;;;;;;;1.35;0.93;;;19.20;52.30;;;;;;5039690;28;20044;-68
2021/09/15 10:29:59;;;;;;;0.55;0.28;;;19.40;53.70;;;;;;5050200;28;20021;-68
2021/09/15 10:32:45;;;;;;;1.38;0.60;;;19.40;53.80;;;;;;5044934;28;20025;-69
2021/09/15 10:35:12;;;;;;;1.33;0.40;;;19.50;54.20;;;;;;5050762;28;20024;-69
2021/09/15 10:37:41;;;;;;;1.88;0.50;;;19.50;53.50;;;;;;5044216;28;20033;-69
2021/09/15 10:40:09;;;;;;;1.33;0.40;;;19.50;53.50;;;;;;5036758;28;20427;-69
2021/09/15 10:42:37;;;;;;;2.90;0.52;;;19.40;52.90;;;;;;5046775;28;20415;-69
2021/09/15 10:45:15;;;;;;;2.25;0.55;;;19.30;53.50;;;;;;5047864;28;20480;-69
2021/09/15 10:47:45;;;;;;;3.03;0.43;;;19.20;54.60;;;;;;5042832;28;20055;-69
2021/09/15 10:50:28;;;;;;;3.03;0.40;;;19.20;54.90;;;;;;5046613;28;20013;-69
2021/09/15 10:53:12;;;;;;;0.68;0.68;;;19.30;54.50;;;;;;5042367;28;20064;-68
2021/09/15 10:55:40;;;;;;;4.63;0.95;;;19.40;54.20;;;;;;5044351;28;20505;-68
2021/09/15 10:58:23;;;;;;;1.77;0.50;;;19.50;54.10;;;;;;5046384;28;20108;-68
2021/09/15 11:00:53;;;;;;;0.32;0.32;;;19.50;52.00;;;;;;5036087;28;20037;-69
2021/09/15 11:03:39;;;;;;;0.60;0.30;;;19.50;50.80;;;;;;5045977;28;20344;-69
2021/09/15 11:06:08;;;;;;;1.10;0.50;;;19.50;51.00;;;;;;5045828;28;20108;-69
2021/09/15 11:09:20;;;;;;;0.40;0.40;;;19.40;51.90;;;;;;5048600;28;20064;-69
2021/09/15 11:12:29;;;;;;;0.90;0.28;;;19.40;50.70;;;;;;5039353;28;20048;-69
2021/09/15 11:15:38;;;;;;;0.77;0.25;;;19.40;50.70;;;;;;5044699;28;20025;-69
2021/09/15 11:18:44;;;;;;;1.25;0.60;;;19.40;51.20;;;;;;5038975;28;20086;-69
2021/09/15 11:21:52;;;;;;;1.38;0.45;;;19.50;51.40;;;;;;5047240;28;20056;-69
2021/09/15 11:24:58;;;;;;;0.75;0.30;;;19.50;51.10;;;;;;5043773;28;20040;-69
2021/09/15 11:28:03;;;;;;;2.08;0.20;;;19.50;51.50;;;;;;5038287;28;20029;-69
2021/09/15 11:30:52;;;;;;;0.95;0.40;;;19.50;51.30;;;;;;5043323;28;20420;-69
2021/09/15 11:33:54;;;;;;;3.45;0.40;;;19.60;50.90;;;;;;5038250;28;20052;-69
2021/09/15 11:37:00;;;;;;;0.20;0.20;;;19.80;50.90;;;;;;5037374;28;20033;-69
2021/09/15 11:40:14;;;;;;;2.92;0.40;;;20.00;49.80;;;;;;5039698;28;20032;-69
2021/09/15 11:43:21;;;;;;;1.75;0.40;;;20.20;50.50;;;;;;5042799;28;20043;-69
2021/09/15 11:46:27;;;;;;;5.72;0.30;;;20.40;48.80;;;;;;5041560;28;20385;-69
2021/09/15 11:49:33;;;;;;;0.73;0.25;;;20.60;48.00;;;;;;5045668;28;20039;-69
2021/09/15 11:52:39;;;;;;;0.20;0.20;;;20.70;47.60;;;;;;5043022;28;20506;-69
2021/09/15 11:55:50;;;;;;;0.47;0.25;;;21.00;47.30;;;;;;5048195;28;20139;-69
2021/09/15 11:58:56;;;;;;;1.42;0.50;;;21.10;48.10;;;;;;5045154;28;20041;-69
2021/09/15 12:02:02;;;;;;;1.33;0.30;;;21.00;47.40;;;;;;5047257;28;20507;-69
2021/09/15 12:05:08;;;;;;;0.50;0.50;;;21.00;48.10;;;;;;5048368;28;20068;-69
2021/09/15 12:08:14;;;;;;;2.08;0.40;;;21.00;47.60;;;;;;5043391;28;20031;-69
2021/09/15 12:11:20;;;;;;;1.15;0.25;;;20.90;48.00;;;;;;5043520;28;20017;-69
2021/09/15 12:14:26;;;;;;;1.00;0.20;;;20.80;47.30;;;;;;5044904;28;20057;-69
2021/09/15 12:17:32;;;;;;;1.15;0.30;;;20.80;48.20;;;;;;5043975;28;20029;-70
2021/09/15 12:20:38;;;;;;;2.17;0.60;;;20.90;48.40;;;;;;5042263;28;20025;-69
2021/09/15 12:23:47;;;;;;;2.58;0.85;;;21.00;48.30;;;;;;5046106;28;20021;-70
2021/09/15 12:26:53;;;;;;;0.93;0.20;;;20.90;48.00;;;;;;5038189;28;20476;-70
2021/09/15 12:29:59;;;;;;;1.25;0.28;;;21.00;47.20;;;;;;5042984;28;20029;-69
2021/09/15 12:33:08;;;;;;;0.20;0.20;;;21.10;46.50;;;;;;5045829;28;20387;-69
2021/09/15 12:36:26;;;;;;;0.20;0.20;;;21.20;45.00;;;;;;5044938;28;20135;-69
2021/09/15 12:39:33;;;;;;;0.73;0.45;;;21.30;46.30;;;;;;5041711;28;20029;-69
2021/09/15 12:42:39;;;;;;;0.30;0.30;;;21.40;45.50;;;;;;5041851;28;20055;-70
2021/09/15 12:45:29;;;;;;;0.52;0.20;;;21.50;46.40;;;;;;5045458;28;20029;-69
2021/09/15 12:48:35;;;;;;;0.25;0.25;;;21.50;46.80;;;;;;5041879;28;20406;-70
2021/09/15 12:51:41;;;;;;;0.20;0.20;;;21.40;46.70;;;;;;5040216;28;20036;-69
2021/09/15 12:54:47;;;;;;;2.35;0.40;;;21.40;46.00;;;;;;5044415;28;20045;-70
2021/09/15 12:57:46;;;;;;;0.15;0.15;;;21.40;45.90;;;;;;5038821;28;20120;-69
2021/09/15 13:01:04;;;;;;;2.60;0.50;;;21.50;46.00;;;;;;5042056;28;20048;-70
2021/09/15 13:04:16;;;;;;;0.60;0.30;;;21.40;45.60;;;;;;5049282;28;20055;-70
2021/09/15 13:07:22;;;;;;;0.25;0.20;;;21.50;45.80;;;;;;5048045;28;20029;-69
2021/09/15 13:10:28;;;;;;;0.30;0.30;;;21.40;46.40;;;;;;5049754;28;20102;-69
2021/09/15 13:13:37;;;;;;;0.20;0.20;;;21.40;46.00;;;;;;5045639;28;20440;-69
2021/09/15 13:16:43;;;;;;;1.73;0.30;;;21.40;46.00;;;;;;5042058;28;20040;-69
2021/09/15 13:19:49;;;;;;;0.30;0.30;;;21.40;44.80;;;;;;5051116;28;20468;-69
2021/09/15 13:22:55;;;;;;;3.03;0.30;;;21.40;44.70;;;;;;5048784;28;20024;-69
2021/09/15 13:26:04;;;;;;;1.98;0.50;;;21.40;43.80;;;;;;5047507;28;20025;-69
2021/09/15 13:29:10;;;;;;;1.55;0.90;;;21.40;44.30;;;;;;5045601;28;20072;-69
2021/09/15 13:32:16;;;;;;;3.05;0.90;;;21.30;43.90;;;;;;5049275;28;20025;-69
2021/09/15 13:35:22;;;;;;;1.67;0.82;;;21.30;44.30;;;;;;5041549;28;20017;-69
2021/09/15 13:38:08;;;;;;;;;;;21.20;44.20;;;;;;5044423;28;20022;-69
2021/09/15 13:41:14;;;;;;;0.63;0.40;;;21.20;43.80;;;;;;5046629;28;19952;-69
2021/09/15 13:44:20;;;;;;;0.52;0.40;;;21.20;44.20;;;;;;5043695;28;20380;-69